createdAt,value
2022-08-07T00:00:36.658Z,10.18
2022-08-07T00:03:07.211Z,9.07
2022-08-07T00:05:36.166Z,10.30
2022-08-07T00:08:04.986Z,8.63
2022-08-07T00:10:34.617Z,9.90
2022-08-07T00:13:17.471Z,8.95
2022-08-07T00:15:51.584Z,7.78
2022-08-07T00:18:24.642Z,7.80
2022-08-07T00:20:55.243Z,7.75
2022-08-07T00:23:23.440Z,8.02
2022-08-07T00:25:58.166Z,9.32
2022-08-07T00:28:33.723Z,9.38
2022-08-07T00:31:12.354Z,8.05
2022-08-07T00:33:42.988Z,8.00
2022-08-07T00:36:14.168Z,7.47
2022-08-07T00:38:40.873Z,6.97
2022-08-07T00:41:09.920Z,8.82
2022-08-07T00:43:59.829Z,7.65
2022-08-07T00:46:27.771Z,7.60
2022-08-07T00:48:54.315Z,8.63
2022-08-07T00:51:21.232Z,8.07
2022-08-07T00:53:55.339Z,8.00
2022-08-07T00:56:23.394Z,8.65
2022-08-07T00:58:57.579Z,7.95
2022-08-07T01:01:24.530Z,9.85
2022-08-07T01:03:57.201Z,7.32
2022-08-07T01:06:28.979Z,8.85
2022-08-07T01:08:59.364Z,7.20
2022-08-07T01:12:09.585Z,8.88
2022-08-07T01:14:16.822Z,9.07
2022-08-07T01:16:47.250Z,7.63
2022-08-07T01:19:19.212Z,8.57
2022-08-07T01:21:49.202Z,8.25
2022-08-07T01:24:21.223Z,8.52
2022-08-07T01:26:51.967Z,7.75
2022-08-07T01:29:20.564Z,8.48
2022-08-07T01:31:49.596Z,7.97
2022-08-07T01:34:18.732Z,9.23
2022-08-07T01:36:52.598Z,7.40
2022-08-07T01:39:41.445Z,7.22
2022-08-07T01:42:38.473Z,7.05
2022-08-07T01:45:10.100Z,7.53
2022-08-07T01:48:29.335Z,6.03
2022-08-07T01:50:32.167Z,7.22
2022-08-07T01:53:01.758Z,7.15
2022-08-07T01:55:39.998Z,8.13
2022-08-07T01:58:27.359Z,8.40
2022-08-07T02:01:09.828Z,8.10
2022-08-07T02:03:51.976Z,6.50
2022-08-07T02:06:31.706Z,8.15
2022-08-07T02:09:03.633Z,7.35
2022-08-07T02:12:03.236Z,6.57
2022-08-07T02:14:40.908Z,6.80
2022-08-07T02:17:10.884Z,7.15
2022-08-07T02:20:04.550Z,8.55
2022-08-07T02:22:28.578Z,6.85
2022-08-07T02:24:57.947Z,6.72
2022-08-07T02:27:26.370Z,6.07
2022-08-07T02:30:04.042Z,6.43
2022-08-07T02:32:38.683Z,6.95
2022-08-07T02:35:10.836Z,7.25
2022-08-07T02:37:44.154Z,7.05
2022-08-07T02:40:34.916Z,7.95
2022-08-07T02:42:59.181Z,7.63
2022-08-07T02:45:58.292Z,6.00
2022-08-07T02:48:15.702Z,6.20
2022-08-07T02:50:44.933Z,6.80
2022-08-07T02:53:18.031Z,7.65
2022-08-07T02:56:04.287Z,6.80
2022-08-07T02:58:34.011Z,5.20
2022-08-07T03:01:03.110Z,5.25
2022-08-07T03:03:42.101Z,7.13
2022-08-07T03:06:25.994Z,6.78
2022-08-07T03:09:01.852Z,7.70
2022-08-07T03:11:29.467Z,7.00
2022-08-07T03:14:01.767Z,6.32
2022-08-07T03:16:32.447Z,6.70
2022-08-07T03:19:00.098Z,6.57
2022-08-07T03:21:28.316Z,6.45
2022-08-07T03:24:20.820Z,8.85
2022-08-07T03:26:58.479Z,6.95
2022-08-07T03:29:33.915Z,6.78
2022-08-07T03:32:07.086Z,6.00
2022-08-07T03:34:47.163Z,6.13
2022-08-07T03:37:32.614Z,5.53
2022-08-07T03:40:15.615Z,5.72
2022-08-07T03:42:43.822Z,5.88
2022-08-07T03:45:11.552Z,5.40
2022-08-07T03:47:47.749Z,6.38
2022-08-07T03:50:23.154Z,6.35
2022-08-07T03:52:52.289Z,6.60
2022-08-07T03:55:19.080Z,5.72
2022-08-07T03:58:34.144Z,5.60
2022-08-07T04:00:36.830Z,5.72
2022-08-07T04:03:04.818Z,6.35
2022-08-07T04:05:39.389Z,5.28
2022-08-07T04:08:15.911Z,6.63
2022-08-07T04:10:53.893Z,5.47
2022-08-07T04:14:11.008Z,3.47
2022-08-07T04:16:31.325Z,3.88
2022-08-07T04:19:12.623Z,3.83
2022-08-07T04:21:58.841Z,4.40
2022-08-07T04:24:33.781Z,4.72
2022-08-07T04:27:03.026Z,6.80
2022-08-07T04:29:58.205Z,5.20
2022-08-07T04:32:18.206Z,5.40
2022-08-07T04:34:56.180Z,9.40
2022-08-07T04:37:22.854Z,5.43
2022-08-07T04:39:50.743Z,6.93
2022-08-07T04:42:17.432Z,6.18
2022-08-07T04:45:02.598Z,9.88
2022-08-07T04:48:00.915Z,9.02
2022-08-07T04:50:28.312Z,10.65
2022-08-07T04:53:07.138Z,9.23
2022-08-07T04:58:09.898Z,8.75
2022-08-07T04:59:17.095Z,7.50
2022-08-07T05:02:05.768Z,8.30
2022-08-07T05:04:53.718Z,6.68
2022-08-07T05:07:30.417Z,9.45
2022-08-07T05:10:28.428Z,7.32
2022-08-07T05:14:44.943Z,7.93
2022-08-07T05:15:53.550Z,10.35
2022-08-07T05:18:25.635Z,8.15
2022-08-07T05:20:56.580Z,9.60
2022-08-07T05:23:44.667Z,7.85
2022-08-07T05:26:23.932Z,9.88
2022-08-07T05:28:53.682Z,9.23
2022-08-07T05:31:35.319Z,9.07
2022-08-07T05:34:10.786Z,9.95
2022-08-07T05:36:40.699Z,10.05
2022-08-07T05:40:05.321Z,9.98
2022-08-07T05:42:02.584Z,7.97
2022-08-07T05:44:33.671Z,8.50
2022-08-07T05:47:01.704Z,8.80
2022-08-07T05:49:48.026Z,7.80
2022-08-07T05:52:14.580Z,8.65
2022-08-07T05:54:55.578Z,7.18
2022-08-07T05:57:26.755Z,9.77
2022-08-07T06:00:01.185Z,9.15
2022-08-07T06:02:33.084Z,7.38
2022-08-07T06:05:05.947Z,7.90
2022-08-07T06:08:13.437Z,7.20
2022-08-07T06:10:21.721Z,7.45
2022-08-07T06:12:49.645Z,7.95
2022-08-07T06:15:20.010Z,8.63
2022-08-07T06:17:53.935Z,7.82
2022-08-07T06:20:31.825Z,8.50
2022-08-07T06:23:46.869Z,7.82
2022-08-07T06:25:59.724Z,7.90
2022-08-07T06:28:27.905Z,8.50
2022-08-07T06:30:55.676Z,8.15
2022-08-07T06:33:22.916Z,9.18
2022-08-07T06:36:06.505Z,8.43
2022-08-07T06:38:36.732Z,8.98
2022-08-07T06:41:12.895Z,7.55
2022-08-07T06:43:46.156Z,9.38
2022-08-07T06:46:15.334Z,9.55
2022-08-07T06:48:58.278Z,10.43
2022-08-07T06:51:33.180Z,10.38
2022-08-07T06:55:31.345Z,9.80
2022-08-07T06:56:54.491Z,9.35
2022-08-07T07:00:12.289Z,11.30
2022-08-07T07:02:48.656Z,10.68
2022-08-07T07:05:08.914Z,12.20
2022-08-07T07:08:00.170Z,10.90
2022-08-07T07:10:33.495Z,11.77
2022-08-07T07:13:13.171Z,11.55
2022-08-07T07:15:51.772Z,12.75
2022-08-07T07:19:00.254Z,15.52
2022-08-07T07:22:05.027Z,13.73
2022-08-07T07:24:29.343Z,15.85
2022-08-07T07:27:00.949Z,15.40
2022-08-07T07:29:56.491Z,15.68
2022-08-07T07:32:23.105Z,15.88
2022-08-07T07:34:55.827Z,18.10
2022-08-07T07:37:49.414Z,26.00
2022-08-07T07:40:19.674Z,14.70
2022-08-07T07:45:24.603Z,14.63
2022-08-07T07:48:12.923Z,16.98
2022-08-07T07:51:02.018Z,19.73
2022-08-07T07:53:30.462Z,20.77
2022-08-07T07:56:02.004Z,20.23
2022-08-07T07:58:40.183Z,20.25
2022-08-07T08:02:03.206Z,22.83
2022-08-07T08:04:09.324Z,22.52
2022-08-07T08:06:39.572Z,26.17
2022-08-07T08:09:08.578Z,20.67
2022-08-07T08:11:59.492Z,27.40
2022-08-07T08:14:26.649Z,27.15
2022-08-07T08:16:56.324Z,33.08
2022-08-07T08:20:19.531Z,26.75
2022-08-07T08:22:54.342Z,32.53
2022-08-07T08:25:43.048Z,27.65
2022-08-07T08:28:24.156Z,24.73
2022-08-07T08:31:15.901Z,31.83
2022-08-07T08:33:49.036Z,33.95
2022-08-07T08:36:18.148Z,37.65
2022-08-07T08:38:55.978Z,37.13
2022-08-07T08:41:31.489Z,35.47
2022-08-07T08:47:13.783Z,27.90
2022-08-07T08:50:06.133Z,26.10
2022-08-07T08:52:51.548Z,45.10
2022-08-07T08:55:55.238Z,28.83
2022-08-07T08:58:50.602Z,32.55
2022-08-07T09:01:29.758Z,43.65
2022-08-07T09:04:28.822Z,35.97
2022-08-07T09:07:29.331Z,35.50
2022-08-07T09:10:36.135Z,35.17
2022-08-07T09:13:14.679Z,32.17
2022-08-07T09:16:23.931Z,38.15
2022-08-07T09:19:51.134Z,36.70
2022-08-07T09:24:33.365Z,52.75
2022-08-07T09:25:35.547Z,29.23
2022-08-07T09:30:03.263Z,53.17
2022-08-07T09:31:22.699Z,41.22
2022-08-07T09:33:58.939Z,49.33
2022-08-07T09:36:37.315Z,37.28
2022-08-07T09:39:53.205Z,39.58
2022-08-07T09:42:23.072Z,44.80
2022-08-07T09:47:23.773Z,56.42
2022-08-07T09:48:11.704Z,51.15
2022-08-07T09:52:15.955Z,59.78
2022-08-07T09:54:08.238Z,79.03
2022-08-07T09:56:42.791Z,81.32
2022-08-07T10:00:01.423Z,100.45
2022-08-07T10:02:40.400Z,108.10
2022-08-07T10:05:59.749Z,109.82
2022-08-07T10:09:07.213Z,109.28
2022-08-07T10:12:00.032Z,98.20
2022-08-07T10:14:33.546Z,117.00
2022-08-07T10:17:14.151Z,121.00
2022-08-07T10:19:58.108Z,117.33
2022-08-07T10:22:59.290Z,119.22
2022-08-07T10:25:42.216Z,124.10
2022-08-07T10:31:06.087Z,99.22
2022-08-07T10:34:06.676Z,107.10
2022-08-07T10:36:58.453Z,120.43
2022-08-07T10:40:02.735Z,134.95
2022-08-07T10:42:47.286Z,142.40
2022-08-07T10:45:57.838Z,155.88
2022-08-07T10:48:41.067Z,169.07
2022-08-07T10:52:02.292Z,171.88
2022-08-07T10:54:35.460Z,181.13
2022-08-07T10:57:01.968Z,206.95
2022-08-07T10:59:52.218Z,199.52
2022-08-07T11:02:53.649Z,221.68
2022-08-07T11:05:49.159Z,222.48
2022-08-07T11:08:18.408Z,230.27
2022-08-07T11:11:02.962Z,219.45
2022-08-07T11:14:43.940Z,228.07
2022-08-07T11:16:38.955Z,228.18
2022-08-07T11:19:14.103Z,226.80
2022-08-07T11:22:32.238Z,229.10
2022-08-07T11:25:25.674Z,236.55
2022-08-07T11:28:16.577Z,252.38
2022-08-07T11:31:08.584Z,204.80
2022-08-07T11:34:04.193Z,221.18
2022-08-07T11:36:37.584Z,212.40
2022-08-07T11:39:19.853Z,258.30
2022-08-07T11:42:18.559Z,248.73
2022-08-07T11:44:52.799Z,222.82
2022-08-07T11:48:18.089Z,233.75
2022-08-07T11:51:40.874Z,260.70
2022-08-07T11:54:33.297Z,255.05
2022-08-07T11:57:57.729Z,259.83
2022-08-07T12:01:00.188Z,221.70
2022-08-07T12:04:17.352Z,175.05
2022-08-07T12:06:57.213Z,168.50
2022-08-07T12:12:28.784Z,171.15
2022-08-07T12:15:03.192Z,174.48
2022-08-07T12:17:59.217Z,186.15
2022-08-07T12:20:38.061Z,208.80
2022-08-07T12:23:37.120Z,186.90
2022-08-07T12:26:30.053Z,217.07
2022-08-07T12:29:07.541Z,198.95
2022-08-07T12:32:04.951Z,197.32
2022-08-07T12:34:38.805Z,214.20
2022-08-07T12:37:16.851Z,217.48
2022-08-07T12:39:51.777Z,219.32
2022-08-07T12:42:28.026Z,222.88
2022-08-07T12:44:58.609Z,205.80
2022-08-07T12:47:40.635Z,235.52
2022-08-07T12:50:33.835Z,209.70
2022-08-07T12:53:17.697Z,242.15
2022-08-07T12:56:03.935Z,243.65
2022-08-07T12:58:39.631Z,226.88
2022-08-07T13:01:09.023Z,152.93
2022-08-07T13:03:54.904Z,145.75
2022-08-07T13:06:54.205Z,134.95
2022-08-07T13:10:37.493Z,141.93
2022-08-07T13:12:51.901Z,168.80
2022-08-07T13:15:35.896Z,204.18
2022-08-07T13:18:28.284Z,145.70
2022-08-07T13:21:37.356Z,137.00
2022-08-07T13:24:18.495Z,144.23
2022-08-07T13:27:22.446Z,121.57
2022-08-07T13:29:56.869Z,83.53
2022-08-07T13:32:45.615Z,59.13
2022-08-07T13:36:00.467Z,81.22
2022-08-07T13:38:41.927Z,57.35
2022-08-07T13:41:31.137Z,65.00
2022-08-07T13:44:01.797Z,70.53
2022-08-07T13:46:37.645Z,64.22
2022-08-07T13:50:34.652Z,61.72
2022-08-07T13:52:04.851Z,53.00
2022-08-07T13:54:49.604Z,47.63
2022-08-07T13:57:38.191Z,50.00
2022-08-07T14:00:06.760Z,46.10
2022-08-07T14:02:49.500Z,40.75
2022-08-07T14:05:23.525Z,36.90
2022-08-07T14:08:00.990Z,38.22
2022-08-07T14:10:41.976Z,38.33
2022-08-07T14:13:16.075Z,37.58
2022-08-07T14:15:50.680Z,42.58
2022-08-07T14:18:40.242Z,37.22
2022-08-07T14:22:00.469Z,38.78
2022-08-07T14:24:08.963Z,34.03
2022-08-07T14:26:51.306Z,33.38
2022-08-07T14:30:06.548Z,29.83
2022-08-07T14:32:12.637Z,25.08
2022-08-07T14:34:46.434Z,23.85
2022-08-07T14:37:17.352Z,20.40
2022-08-07T14:43:55.924Z,20.08
2022-08-07T14:45:25.530Z,20.50
2022-08-07T14:48:19.868Z,24.30
2022-08-07T14:51:00.103Z,26.77
2022-08-07T14:54:03.574Z,29.27
2022-08-07T14:56:29.815Z,25.88
2022-08-07T14:59:02.101Z,26.75
2022-08-07T15:01:42.641Z,30.02
2022-08-07T15:04:11.653Z,25.75
2022-08-07T15:06:40.681Z,25.05
2022-08-07T15:12:10.418Z,22.40
2022-08-07T15:15:09.187Z,22.30
2022-08-07T15:17:56.148Z,20.35
2022-08-07T15:20:32.406Z,19.45
2022-08-07T15:23:20.208Z,19.90
2022-08-07T15:25:54.161Z,20.75
2022-08-07T15:34:02.728Z,20.73
2022-08-07T15:37:02.792Z,19.60
2022-08-07T15:39:22.415Z,20.73
2022-08-07T15:42:45.116Z,20.53
2022-08-07T15:44:52.296Z,19.60
2022-08-07T15:47:21.843Z,19.02
2022-08-07T15:51:01.208Z,20.17
2022-08-07T15:53:05.452Z,20.42
2022-08-07T15:58:23.663Z,20.60
2022-08-07T16:01:00.033Z,19.95
2022-08-07T16:03:47.453Z,23.88
2022-08-07T16:06:38.358Z,23.60
2022-08-07T16:09:41.173Z,22.75
2022-08-07T16:12:37.834Z,23.30
2022-08-07T16:15:55.751Z,25.98
2022-08-07T16:18:49.465Z,26.08
2022-08-07T16:22:03.552Z,29.95
2022-08-07T16:24:52.633Z,28.85
2022-08-07T16:27:40.311Z,28.50
2022-08-07T16:30:30.836Z,27.52
2022-08-07T16:34:01.404Z,28.33
2022-08-07T16:36:20.885Z,27.17
2022-08-07T16:39:33.482Z,27.45
2022-08-07T16:42:30.676Z,25.38
2022-08-07T16:46:40.968Z,24.77
2022-08-07T16:49:10.427Z,22.30
2022-08-07T16:52:49.288Z,21.17
2022-08-07T16:55:08.456Z,23.20
2022-08-07T16:58:03.994Z,24.38
2022-08-07T17:00:40.815Z,26.23
2022-08-07T17:03:17.537Z,38.38
2022-08-07T17:06:30.137Z,47.22
2022-08-07T17:10:05.165Z,54.83
2022-08-07T17:12:34.476Z,69.70
2022-08-07T17:15:15.764Z,74.80
2022-08-07T17:17:48.389Z,64.85
2022-08-07T17:20:41.864Z,70.25
2022-08-07T17:23:32.350Z,69.10
2022-08-07T17:26:24.344Z,69.95
2022-08-07T17:28:57.899Z,79.53
2022-08-07T17:31:44.384Z,79.80
2022-08-07T17:35:40.033Z,90.33
2022-08-07T17:38:05.005Z,86.85
2022-08-07T17:40:34.277Z,88.32
2022-08-07T17:43:18.020Z,99.63
2022-08-07T17:45:54.838Z,106.10
2022-08-07T17:48:30.620Z,107.38
2022-08-07T17:51:21.606Z,123.38
2022-08-07T17:54:29.787Z,136.38
2022-08-07T17:57:18.702Z,176.48
2022-08-07T17:59:52.294Z,166.73
2022-08-07T18:02:32.661Z,178.05
2022-08-07T18:05:21.968Z,190.70
2022-08-07T18:08:10.027Z,220.05
2022-08-07T18:12:06.990Z,226.82
2022-08-07T18:13:49.591Z,231.15
2022-08-07T18:16:31.194Z,252.98
2022-08-07T18:21:10.406Z,274.88
2022-08-07T18:22:26.424Z,274.70
2022-08-07T18:25:24.163Z,275.00
2022-08-07T18:28:34.341Z,287.35
2022-08-07T18:31:18.646Z,285.73
2022-08-07T18:34:03.900Z,282.10
2022-08-07T18:36:43.599Z,295.60
2022-08-07T18:40:05.152Z,279.77
2022-08-07T18:42:54.899Z,272.13
2022-08-07T18:45:44.209Z,291.33
2022-08-07T18:50:19.055Z,282.58
2022-08-07T18:52:51.758Z,270.27
2022-08-07T18:55:43.365Z,274.98
2022-08-07T18:58:37.111Z,254.75
2022-08-07T19:02:17.300Z,236.70
2022-08-07T19:04:32.135Z,222.57
2022-08-07T19:07:16.395Z,213.55
2022-08-07T19:10:14.835Z,219.07
2022-08-07T19:12:59.431Z,215.27
2022-08-07T19:16:05.959Z,210.15
2022-08-07T19:18:55.028Z,207.10
2022-08-07T19:21:47.980Z,203.52
2022-08-07T19:24:30.516Z,206.23
2022-08-07T19:28:57.982Z,198.85
2022-08-07T19:30:57.666Z,201.13
2022-08-07T19:32:46.228Z,181.63
2022-08-07T19:35:25.330Z,192.00
2022-08-07T19:37:59.875Z,195.98
2022-08-07T19:40:34.578Z,195.07
2022-08-07T19:43:10.807Z,193.45
2022-08-07T19:46:07.889Z,190.38
2022-08-07T19:48:42.751Z,191.43
2022-08-07T19:51:19.444Z,189.90
2022-08-07T19:54:30.988Z,195.98
2022-08-07T19:58:00.368Z,218.18
2022-08-07T19:59:41.553Z,212.93
2022-08-07T20:02:29.230Z,227.95
2022-08-07T20:04:58.020Z,208.27
2022-08-07T20:07:47.794Z,214.45
2022-08-07T20:10:36.939Z,213.38
2022-08-07T20:13:22.484Z,228.55
2022-08-07T20:15:50.025Z,236.93
2022-08-07T20:18:20.181Z,226.23
2022-08-07T20:20:59.972Z,256.13
2022-08-07T20:23:41.559Z,245.75
2022-08-07T20:26:11.050Z,232.32
2022-08-07T20:28:39.953Z,245.65
2022-08-07T20:31:21.452Z,254.38
2022-08-07T20:33:56.707Z,257.52
2022-08-07T20:36:27.236Z,249.38
2022-08-07T20:39:00.241Z,238.40
2022-08-07T20:41:38.436Z,240.02
2022-08-07T20:44:12.516Z,245.10
2022-08-07T20:46:44.639Z,244.40
2022-08-07T20:49:58.480Z,243.98
2022-08-07T20:52:07.836Z,226.15
2022-08-07T20:54:41.631Z,236.85
2022-08-07T20:57:12.833Z,250.07
2022-08-07T21:00:06.432Z,242.73
2022-08-07T21:02:54.372Z,246.55
2022-08-07T21:05:42.651Z,239.88
2022-08-07T21:08:16.518Z,257.88
2022-08-07T21:10:49.450Z,245.50
2022-08-07T21:13:24.532Z,247.55
2022-08-07T21:16:09.200Z,267.13
2022-08-07T21:18:41.134Z,286.17
2022-08-07T21:21:09.085Z,270.20
2022-08-07T21:23:58.637Z,253.20
2022-08-07T21:26:45.374Z,276.90
2022-08-07T21:29:21.327Z,252.48
2022-08-07T21:32:48.778Z,258.17
2022-08-07T21:35:34.639Z,251.73
2022-08-07T21:38:13.277Z,270.75
2022-08-07T21:41:10.916Z,255.85
2022-08-07T21:44:14.683Z,246.20
2022-08-07T21:47:12.128Z,264.45
2022-08-07T21:50:01.416Z,255.18
2022-08-07T21:52:44.456Z,231.02
2022-08-07T21:55:27.987Z,232.63
2022-08-07T21:58:30.023Z,212.35
2022-08-07T22:02:06.153Z,210.90
2022-08-07T22:04:51.376Z,214.13
2022-08-07T22:07:48.625Z,208.77
2022-08-07T22:10:17.638Z,196.07
2022-08-07T22:12:45.232Z,261.17
2022-08-07T22:16:39.209Z,257.75
2022-08-07T22:18:07.248Z,216.80
2022-08-07T22:20:44.336Z,225.23
2022-08-07T22:23:13.762Z,206.70
2022-08-07T22:25:51.982Z,211.18
2022-08-07T22:28:37.427Z,201.52
2022-08-07T22:31:55.968Z,215.07
2022-08-07T22:34:08.327Z,218.27
2022-08-07T22:36:47.618Z,211.45
2022-08-07T22:39:52.700Z,206.90
2022-08-07T22:42:25.621Z,199.30
2022-08-07T22:44:59.103Z,195.43
2022-08-07T22:47:44.909Z,198.32
2022-08-07T22:50:29.093Z,231.18
2022-08-07T22:53:26.816Z,266.05
2022-08-07T22:56:09.176Z,207.93
2022-08-07T22:58:49.422Z,276.40
2022-08-07T23:01:50.828Z,281.25
2022-08-07T23:04:30.154Z,207.25
2022-08-07T23:07:41.742Z,199.20
2022-08-07T23:10:37.600Z,209.27
2022-08-07T23:13:49.091Z,217.98
2022-08-07T23:16:54.629Z,226.80
2022-08-07T23:19:51.695Z,244.48
2022-08-07T23:22:49.345Z,246.18
2022-08-07T23:25:57.829Z,256.80
2022-08-07T23:28:56.535Z,230.90
2022-08-07T23:32:48.851Z,245.20
2022-08-07T23:35:05.295Z,249.52
2022-08-07T23:38:01.633Z,236.38
2022-08-07T23:40:34.175Z,234.05
2022-08-07T23:43:37.717Z,245.18
2022-08-07T23:46:27.265Z,225.43
2022-08-07T23:49:15.825Z,232.52
2022-08-07T23:52:58.692Z,215.45
2022-08-07T23:54:55.228Z,191.00
2022-08-07T23:57:42.935Z,157.95
